sensor_id;sensor_type;location;lat;lon;timestamp;temperature;humidity
5962;DHT22;3007;50.770;0.250;2024-03-25T00:00:36;6.10;99.90
5962;DHT22;3007;50.770;0.250;2024-03-25T00:03:03;6.20;99.90
5962;DHT22;3007;50.770;0.250;2024-03-25T00:05:30;6.10;99.90
5962;DHT22;3007;50.770;0.250;2024-03-25T00:07:57;6.10;99.90
5962;DHT22;3007;50.770;0.250;2024-03-25T00:10:25;6.10;99.90
5962;DHT22;3007;50.770;0.250;2024-03-25T00:12:51;6.20;99.90
5962;DHT22;3007;50.770;0.250;2024-03-25T00:15:21;6.10;99.90
5962;DHT22;3007;50.770;0.250;2024-03-25T00:17:47;6.10;99.90
5962;DHT22;3007;50.770;0.250;2024-03-25T00:20:15;6.10;99.90
5962;DHT22;3007;50.770;0.250;2024-03-25T00:22:41;6.10;99.90
5962;DHT22;3007;50.770;0.250;2024-03-25T00:25:08;6.10;99.90
5962;DHT22;3007;50.770;0.250;2024-03-25T00:27:35;6.10;99.90
5962;DHT22;3007;50.770;0.250;2024-03-25T00:30:02;6.10;99.90
5962;DHT22;3007;50.770;0.250;2024-03-25T00:32:28;6.10;99.90
5962;DHT22;3007;50.770;0.250;2024-03-25T00:34:55;6.10;99.90
5962;DHT22;3007;50.770;0.250;2024-03-25T00:37:22;6.20;99.90
5962;DHT22;3007;50.770;0.250;2024-03-25T00:39:49;6.10;99.90
5962;DHT22;3007;50.770;0.250;2024-03-25T00:42:16;6.10;99.90
5962;DHT22;3007;50.770;0.250;2024-03-25T00:44:43;6.10;99.90
5962;DHT22;3007;50.770;0.250;2024-03-25T00:47:09;6.10;99.90
5962;DHT22;3007;50.770;0.250;2024-03-25T00:49:36;6.10;99.90
5962;DHT22;3007;50.770;0.250;2024-03-25T00:52:02;6.10;99.90
5962;DHT22;3007;50.770;0.250;2024-03-25T00:54:31;6.10;99.90
5962;DHT22;3007;50.770;0.250;2024-03-25T00:56:57;6.20;99.90
5962;DHT22;3007;50.770;0.250;2024-03-25T00:59:24;6.20;99.90
5962;DHT22;3007;50.770;0.250;2024-03-25T01:01:50;6.20;99.90
5962;DHT22;3007;50.770;0.250;2024-03-25T01:04:17;6.10;99.90
5962;DHT22;3007;50.770;0.250;2024-03-25T01:06:43;6.20;99.90
5962;DHT22;3007;50.770;0.250;2024-03-25T01:09:10;6.20;99.90
5962;DHT22;3007;50.770;0.250;2024-03-25T01:11:37;6.20;99.90
5962;DHT22;3007;50.770;0.250;2024-03-25T01:14:04;6.20;99.90
5962;DHT22;3007;50.770;0.250;2024-03-25T01:16:31;6.20;99.90
5962;DHT22;3007;50.770;0.250;2024-03-25T01:18:59;6.30;99.90
5962;DHT22;3007;50.770;0.250;2024-03-25T01:21:25;6.30;99.90
5962;DHT22;3007;50.770;0.250;2024-03-25T01:23:52;6.40;99.90
5962;DHT22;3007;50.770;0.250;2024-03-25T01:26:18;6.40;99.90
5962;DHT22;3007;50.770;0.250;2024-03-25T01:28:47;6.40;99.90
5962;DHT22;3007;50.770;0.250;2024-03-25T01:31:13;6.40;99.90
5962;DHT22;3007;50.770;0.250;2024-03-25T01:33:40;6.40;99.90
5962;DHT22;3007;50.770;0.250;2024-03-25T01:36:06;6.40;99.90
5962;DHT22;3007;50.770;0.250;2024-03-25T01:38:33;6.40;99.90
5962;DHT22;3007;50.770;0.250;2024-03-25T01:41:07;6.40;99.90
5962;DHT22;3007;50.770;0.250;2024-03-25T01:43:35;6.40;99.90
5962;DHT22;3007;50.770;0.250;2024-03-25T01:46:02;6.30;99.90
5962;DHT22;3007;50.770;0.250;2024-03-25T01:48:30;6.30;99.90
5962;DHT22;3007;50.770;0.250;2024-03-25T01:50:56;6.30;99.90
5962;DHT22;3007;50.770;0.250;2024-03-25T01:53:26;6.30;99.90
5962;DHT22;3007;50.770;0.250;2024-03-25T01:55:55;6.20;99.90
5962;DHT22;3007;50.770;0.250;2024-03-25T01:58:23;6.20;99.90
5962;DHT22;3007;50.770;0.250;2024-03-25T02:00:52;6.20;99.90
5962;DHT22;3007;50.770;0.250;2024-03-25T02:03:22;6.10;99.90
5962;DHT22;3007;50.770;0.250;2024-03-25T02:05:51;6.10;99.90
5962;DHT22;3007;50.770;0.250;2024-03-25T02:08:19;6.10;99.90
5962;DHT22;3007;50.770;0.250;2024-03-25T02:10:45;6.10;99.90
5962;DHT22;3007;50.770;0.250;2024-03-25T02:13:13;6.10;99.90
5962;DHT22;3007;50.770;0.250;2024-03-25T02:15:40;6.10;99.90
5962;DHT22;3007;50.770;0.250;2024-03-25T02:18:07;6.10;99.90
5962;DHT22;3007;50.770;0.250;2024-03-25T02:20:35;6.10;99.90
5962;DHT22;3007;50.770;0.250;2024-03-25T02:23:02;6.20;99.90
5962;DHT22;3007;50.770;0.250;2024-03-25T02:25:31;6.20;99.90
5962;DHT22;3007;50.770;0.250;2024-03-25T02:28:00;6.30;99.90
5962;DHT22;3007;50.770;0.250;2024-03-25T02:30:26;6.30;99.90
5962;DHT22;3007;50.770;0.250;2024-03-25T02:32:54;6.30;99.90
5962;DHT22;3007;50.770;0.250;2024-03-25T02:35:21;6.40;99.90
5962;DHT22;3007;50.770;0.250;2024-03-25T02:37:50;6.50;99.90
5962;DHT22;3007;50.770;0.250;2024-03-25T02:40:17;6.50;99.90
5962;DHT22;3007;50.770;0.250;2024-03-25T02:42:45;6.50;99.90
5962;DHT22;3007;50.770;0.250;2024-03-25T02:45:12;6.50;99.90
5962;DHT22;3007;50.770;0.250;2024-03-25T02:47:40;6.50;99.90
5962;DHT22;3007;50.770;0.250;2024-03-25T02:50:06;6.60;99.90
5962;DHT22;3007;50.770;0.250;2024-03-25T02:52:33;6.60;99.90
5962;DHT22;3007;50.770;0.250;2024-03-25T02:54:59;6.60;99.90
5962;DHT22;3007;50.770;0.250;2024-03-25T02:57:26;6.60;99.90
5962;DHT22;3007;50.770;0.250;2024-03-25T02:59:52;6.60;99.90
5962;DHT22;3007;50.770;0.250;2024-03-25T03:02:20;6.60;99.90
5962;DHT22;3007;50.770;0.250;2024-03-25T03:04:46;6.60;99.90
5962;DHT22;3007;50.770;0.250;2024-03-25T03:07:13;6.70;99.90
5962;DHT22;3007;50.770;0.250;2024-03-25T03:09:39;6.70;99.90
5962;DHT22;3007;50.770;0.250;2024-03-25T03:12:06;6.70;99.90
5962;DHT22;3007;50.770;0.250;2024-03-25T03:14:32;6.70;99.90
5962;DHT22;3007;50.770;0.250;2024-03-25T03:16:58;6.80;99.90
5962;DHT22;3007;50.770;0.250;2024-03-25T03:19:26;6.80;99.90
5962;DHT22;3007;50.770;0.250;2024-03-25T03:21:54;6.80;99.90
5962;DHT22;3007;50.770;0.250;2024-03-25T03:24:20;6.80;99.90
5962;DHT22;3007;50.770;0.250;2024-03-25T03:26:47;6.90;99.90
5962;DHT22;3007;50.770;0.250;2024-03-25T03:29:13;6.90;99.90
5962;DHT22;3007;50.770;0.250;2024-03-25T03:31:40;6.90;99.90
5962;DHT22;3007;50.770;0.250;2024-03-25T03:34:06;6.90;99.90
5962;DHT22;3007;50.770;0.250;2024-03-25T03:36:34;6.90;99.90
5962;DHT22;3007;50.770;0.250;2024-03-25T03:39:00;7.00;99.90
5962;DHT22;3007;50.770;0.250;2024-03-25T03:41:29;7.00;99.90
5962;DHT22;3007;50.770;0.250;2024-03-25T03:43:55;7.00;99.90
5962;DHT22;3007;50.770;0.250;2024-03-25T03:46:21;7.10;99.90
5962;DHT22;3007;50.770;0.250;2024-03-25T03:48:47;7.10;99.90
5962;DHT22;3007;50.770;0.250;2024-03-25T03:51:14;7.10;99.90
5962;DHT22;3007;50.770;0.250;2024-03-25T03:53:41;7.10;99.90
5962;DHT22;3007;50.770;0.250;2024-03-25T03:56:08;7.10;99.90
5962;DHT22;3007;50.770;0.250;2024-03-25T03:58:35;7.20;99.90
5962;DHT22;3007;50.770;0.250;2024-03-25T04:01:02;7.20;99.90
5962;DHT22;3007;50.770;0.250;2024-03-25T04:03:29;7.30;99.90
5962;DHT22;3007;50.770;0.250;2024-03-25T04:05:56;7.40;99.90
5962;DHT22;3007;50.770;0.250;2024-03-25T04:08:22;7.40;99.90
5962;DHT22;3007;50.770;0.250;2024-03-25T04:10:51;7.40;99.90
5962;DHT22;3007;50.770;0.250;2024-03-25T04:13:16;7.50;99.90
5962;DHT22;3007;50.770;0.250;2024-03-25T04:15:43;7.50;99.90
5962;DHT22;3007;50.770;0.250;2024-03-25T04:18:09;7.50;99.90
5962;DHT22;3007;50.770;0.250;2024-03-25T04:20:37;7.50;99.90
5962;DHT22;3007;50.770;0.250;2024-03-25T04:23:04;7.60;99.90
5962;DHT22;3007;50.770;0.250;2024-03-25T04:25:33;7.50;99.90
5962;DHT22;3007;50.770;0.250;2024-03-25T04:28:00;7.60;99.90
5962;DHT22;3007;50.770;0.250;2024-03-25T04:30:27;7.60;99.90
5962;DHT22;3007;50.770;0.250;2024-03-25T04:32:53;7.60;99.90
5962;DHT22;3007;50.770;0.250;2024-03-25T04:35:20;7.60;99.90
5962;DHT22;3007;50.770;0.250;2024-03-25T04:37:46;7.60;99.90
5962;DHT22;3007;50.770;0.250;2024-03-25T04:40:13;7.60;99.90
5962;DHT22;3007;50.770;0.250;2024-03-25T04:42:39;7.70;99.90
5962;DHT22;3007;50.770;0.250;2024-03-25T04:45:07;7.70;99.90
5962;DHT22;3007;50.770;0.250;2024-03-25T04:47:33;7.70;99.90
5962;DHT22;3007;50.770;0.250;2024-03-25T04:49:59;7.70;99.90
5962;DHT22;3007;50.770;0.250;2024-03-25T04:52:25;7.70;99.90
5962;DHT22;3007;50.770;0.250;2024-03-25T04:54:52;7.70;99.90
5962;DHT22;3007;50.770;0.250;2024-03-25T04:57:18;7.80;99.90
5962;DHT22;3007;50.770;0.250;2024-03-25T04:59:44;7.80;99.90
5962;DHT22;3007;50.770;0.250;2024-03-25T05:02:11;7.80;99.90
5962;DHT22;3007;50.770;0.250;2024-03-25T05:04:37;7.80;99.90
5962;DHT22;3007;50.770;0.250;2024-03-25T05:07:03;7.80;99.90
5962;DHT22;3007;50.770;0.250;2024-03-25T05:09:29;7.80;99.90
5962;DHT22;3007;50.770;0.250;2024-03-25T05:11:55;7.90;99.90
5962;DHT22;3007;50.770;0.250;2024-03-25T05:14:21;7.90;99.90
5962;DHT22;3007;50.770;0.250;2024-03-25T05:16:48;7.90;99.90
5962;DHT22;3007;50.770;0.250;2024-03-25T05:19:15;7.90;99.90
5962;DHT22;3007;50.770;0.250;2024-03-25T05:21:42;8.00;99.90
5962;DHT22;3007;50.770;0.250;2024-03-25T05:24:07;8.00;99.90
5962;DHT22;3007;50.770;0.250;2024-03-25T05:26:33;8.00;99.90
5962;DHT22;3007;50.770;0.250;2024-03-25T05:28:59;8.00;99.90
5962;DHT22;3007;50.770;0.250;2024-03-25T05:31:25;8.00;99.90
5962;DHT22;3007;50.770;0.250;2024-03-25T05:33:51;8.00;99.90
5962;DHT22;3007;50.770;0.250;2024-03-25T05:36:19;8.00;99.90
5962;DHT22;3007;50.770;0.250;2024-03-25T05:38:45;8.00;99.90
5962;DHT22;3007;50.770;0.250;2024-03-25T05:41:11;8.00;99.90
5962;DHT22;3007;50.770;0.250;2024-03-25T05:43:37;8.00;99.90
5962;DHT22;3007;50.770;0.250;2024-03-25T05:46:04;8.00;99.90
5962;DHT22;3007;50.770;0.250;2024-03-25T05:48:30;8.00;99.90
5962;DHT22;3007;50.770;0.250;2024-03-25T05:51:00;8.00;99.90
5962;DHT22;3007;50.770;0.250;2024-03-25T05:53:28;8.00;99.90
5962;DHT22;3007;50.770;0.250;2024-03-25T05:55:54;8.00;99.90
5962;DHT22;3007;50.770;0.250;2024-03-25T05:58:21;8.00;99.90
5962;DHT22;3007;50.770;0.250;2024-03-25T06:00:48;7.90;99.90
5962;DHT22;3007;50.770;0.250;2024-03-25T06:03:14;7.90;99.90
5962;DHT22;3007;50.770;0.250;2024-03-25T06:05:40;8.00;99.90
5962;DHT22;3007;50.770;0.250;2024-03-25T06:08:07;8.00;99.90
5962;DHT22;3007;50.770;0.250;2024-03-25T06:10:38;8.00;99.90
5962;DHT22;3007;50.770;0.250;2024-03-25T06:13:04;7.90;99.90
5962;DHT22;3007;50.770;0.250;2024-03-25T06:15:30;8.00;99.90
5962;DHT22;3007;50.770;0.250;2024-03-25T06:17:56;7.90;99.90
5962;DHT22;3007;50.770;0.250;2024-03-25T06:20:22;7.90;99.90
5962;DHT22;3007;50.770;0.250;2024-03-25T06:22:47;7.90;99.90
5962;DHT22;3007;50.770;0.250;2024-03-25T06:25:13;7.90;99.90
5962;DHT22;3007;50.770;0.250;2024-03-25T06:27:41;8.00;99.90
5962;DHT22;3007;50.770;0.250;2024-03-25T06:30:08;8.00;99.90
5962;DHT22;3007;50.770;0.250;2024-03-25T06:32:53;8.10;99.90
5962;DHT22;3007;50.770;0.250;2024-03-25T06:35:37;8.20;99.90
5962;DHT22;3007;50.770;0.250;2024-03-25T06:38:03;8.40;99.90
5962;DHT22;3007;50.770;0.250;2024-03-25T06:40:29;8.60;99.90
5962;DHT22;3007;50.770;0.250;2024-03-25T06:42:56;8.90;99.90
5962;DHT22;3007;50.770;0.250;2024-03-25T06:45:22;9.30;99.90
5962;DHT22;3007;50.770;0.250;2024-03-25T06:47:48;9.60;99.90
5962;DHT22;3007;50.770;0.250;2024-03-25T06:50:14;9.90;99.90
5962;DHT22;3007;50.770;0.250;2024-03-25T06:52:40;9.90;99.90
5962;DHT22;3007;50.770;0.250;2024-03-25T06:55:07;9.80;99.90
5962;DHT22;3007;50.770;0.250;2024-03-25T06:57:33;9.70;99.90
5962;DHT22;3007;50.770;0.250;2024-03-25T07:00:00;9.60;99.90
5962;DHT22;3007;50.770;0.250;2024-03-25T07:02:26;9.60;99.90
5962;DHT22;3007;50.770;0.250;2024-03-25T07:04:52;9.50;99.90
5962;DHT22;3007;50.770;0.250;2024-03-25T07:07:18;9.60;99.90
5962;DHT22;3007;50.770;0.250;2024-03-25T07:09:44;10.00;99.90
5962;DHT22;3007;50.770;0.250;2024-03-25T07:12:10;10.50;99.90
5962;DHT22;3007;50.770;0.250;2024-03-25T07:14:36;11.10;99.90
5962;DHT22;3007;50.770;0.250;2024-03-25T07:17:03;11.60;99.90
5962;DHT22;3007;50.770;0.250;2024-03-25T07:19:29;11.70;99.90
5962;DHT22;3007;50.770;0.250;2024-03-25T07:21:55;11.60;99.90
5962;DHT22;3007;50.770;0.250;2024-03-25T07:24:21;11.30;99.90
5962;DHT22;3007;50.770;0.250;2024-03-25T07:26:47;11.10;99.90
5962;DHT22;3007;50.770;0.250;2024-03-25T07:29:13;10.80;99.90
5962;DHT22;3007;50.770;0.250;2024-03-25T07:31:39;10.70;99.90
5962;DHT22;3007;50.770;0.250;2024-03-25T07:34:06;10.50;99.90
5962;DHT22;3007;50.770;0.250;2024-03-25T07:36:32;10.40;99.90
5962;DHT22;3007;50.770;0.250;2024-03-25T07:38:58;10.30;99.90
5962;DHT22;3007;50.770;0.250;2024-03-25T07:41:24;10.20;99.90
5962;DHT22;3007;50.770;0.250;2024-03-25T07:43:50;10.20;99.90
5962;DHT22;3007;50.770;0.250;2024-03-25T07:46:16;10.10;99.90
5962;DHT22;3007;50.770;0.250;2024-03-25T07:48:41;10.10;99.90
5962;DHT22;3007;50.770;0.250;2024-03-25T07:51:11;10.10;99.90
5962;DHT22;3007;50.770;0.250;2024-03-25T07:53:37;10.10;99.90
5962;DHT22;3007;50.770;0.250;2024-03-25T07:56:04;10.10;99.90
5962;DHT22;3007;50.770;0.250;2024-03-25T07:58:30;10.10;99.90
5962;DHT22;3007;50.770;0.250;2024-03-25T08:00:56;10.10;99.90
5962;DHT22;3007;50.770;0.250;2024-03-25T08:03:22;10.10;99.90
5962;DHT22;3007;50.770;0.250;2024-03-25T08:05:48;10.20;99.90
5962;DHT22;3007;50.770;0.250;2024-03-25T08:08:15;10.20;99.90
5962;DHT22;3007;50.770;0.250;2024-03-25T08:10:41;10.30;99.90
5962;DHT22;3007;50.770;0.250;2024-03-25T08:13:06;10.30;99.90
5962;DHT22;3007;50.770;0.250;2024-03-25T08:15:32;10.40;99.90
5962;DHT22;3007;50.770;0.250;2024-03-25T08:17:58;10.50;99.90
5962;DHT22;3007;50.770;0.250;2024-03-25T08:20:24;10.50;99.90
5962;DHT22;3007;50.770;0.250;2024-03-25T08:22:50;10.50;99.90
5962;DHT22;3007;50.770;0.250;2024-03-25T08:25:17;10.60;99.90
5962;DHT22;3007;50.770;0.250;2024-03-25T08:27:43;10.60;99.90
5962;DHT22;3007;50.770;0.250;2024-03-25T08:30:10;10.60;99.90
5962;DHT22;3007;50.770;0.250;2024-03-25T08:32:36;10.60;99.90
5962;DHT22;3007;50.770;0.250;2024-03-25T08:35:02;10.60;99.90
5962;DHT22;3007;50.770;0.250;2024-03-25T08:37:28;10.60;99.90
5962;DHT22;3007;50.770;0.250;2024-03-25T08:39:54;10.60;99.90
5962;DHT22;3007;50.770;0.250;2024-03-25T08:42:21;10.50;99.90
5962;DHT22;3007;50.770;0.250;2024-03-25T08:44:47;10.50;99.90
5962;DHT22;3007;50.770;0.250;2024-03-25T08:47:13;10.50;99.90
5962;DHT22;3007;50.770;0.250;2024-03-25T08:49:39;10.50;99.90
5962;DHT22;3007;50.770;0.250;2024-03-25T08:52:05;10.50;99.90
5962;DHT22;3007;50.770;0.250;2024-03-25T08:54:31;10.60;99.90
5962;DHT22;3007;50.770;0.250;2024-03-25T08:56:57;10.60;99.90
5962;DHT22;3007;50.770;0.250;2024-03-25T08:59:24;10.70;99.90
5962;DHT22;3007;50.770;0.250;2024-03-25T09:01:50;10.70;99.90
5962;DHT22;3007;50.770;0.250;2024-03-25T09:04:16;10.80;99.90
5962;DHT22;3007;50.770;0.250;2024-03-25T09:06:42;10.90;99.90
5962;DHT22;3007;50.770;0.250;2024-03-25T09:09:07;11.10;99.90
5962;DHT22;3007;50.770;0.250;2024-03-25T09:11:52;11.30;99.90
5962;DHT22;3007;50.770;0.250;2024-03-25T09:14:18;11.40;99.90
5962;DHT22;3007;50.770;0.250;2024-03-25T09:16:45;11.50;99.90
5962;DHT22;3007;50.770;0.250;2024-03-25T09:19:11;11.60;99.90
5962;DHT22;3007;50.770;0.250;2024-03-25T09:21:36;11.70;99.90
5962;DHT22;3007;50.770;0.250;2024-03-25T09:24:03;11.70;99.90
5962;DHT22;3007;50.770;0.250;2024-03-25T09:26:29;11.80;99.90
5962;DHT22;3007;50.770;0.250;2024-03-25T09:28:54;11.80;99.90
5962;DHT22;3007;50.770;0.250;2024-03-25T09:31:20;11.80;99.90
5962;DHT22;3007;50.770;0.250;2024-03-25T09:33:47;11.90;99.90
5962;DHT22;3007;50.770;0.250;2024-03-25T09:36:13;12.00;99.90
5962;DHT22;3007;50.770;0.250;2024-03-25T09:38:39;12.00;99.90
5962;DHT22;3007;50.770;0.250;2024-03-25T09:41:05;12.10;99.90
5962;DHT22;3007;50.770;0.250;2024-03-25T09:43:42;12.20;99.90
5962;DHT22;3007;50.770;0.250;2024-03-25T09:46:09;12.30;99.90
5962;DHT22;3007;50.770;0.250;2024-03-25T09:48:36;12.30;99.90
5962;DHT22;3007;50.770;0.250;2024-03-25T09:51:04;12.30;99.90
5962;DHT22;3007;50.770;0.250;2024-03-25T09:53:30;12.40;99.90
5962;DHT22;3007;50.770;0.250;2024-03-25T09:55:57;12.30;99.90
5962;DHT22;3007;50.770;0.250;2024-03-25T09:58:24;12.30;99.90
5962;DHT22;3007;50.770;0.250;2024-03-25T10:00:51;12.30;99.90
5962;DHT22;3007;50.770;0.250;2024-03-25T10:03:16;12.30;99.90
5962;DHT22;3007;50.770;0.250;2024-03-25T10:05:42;12.40;99.90
5962;DHT22;3007;50.770;0.250;2024-03-25T10:08:10;12.30;99.90
5962;DHT22;3007;50.770;0.250;2024-03-25T10:10:36;12.30;99.90
5962;DHT22;3007;50.770;0.250;2024-03-25T10:13:02;12.40;99.90
5962;DHT22;3007;50.770;0.250;2024-03-25T10:15:28;12.40;99.90
5962;DHT22;3007;50.770;0.250;2024-03-25T10:17:54;12.50;99.90
5962;DHT22;3007;50.770;0.250;2024-03-25T10:20:20;12.50;99.90
5962;DHT22;3007;50.770;0.250;2024-03-25T10:22:46;12.60;99.90
5962;DHT22;3007;50.770;0.250;2024-03-25T10:25:25;12.60;99.90
5962;DHT22;3007;50.770;0.250;2024-03-25T10:27:55;12.70;99.90
5962;DHT22;3007;50.770;0.250;2024-03-25T10:30:21;12.80;99.90
5962;DHT22;3007;50.770;0.250;2024-03-25T10:32:57;12.80;99.90
5962;DHT22;3007;50.770;0.250;2024-03-25T10:35:28;12.80;99.90
5962;DHT22;3007;50.770;0.250;2024-03-25T10:37:58;13.00;99.90
5962;DHT22;3007;50.770;0.250;2024-03-25T10:40:27;12.90;99.90
5962;DHT22;3007;50.770;0.250;2024-03-25T10:43:02;13.00;99.90
5962;DHT22;3007;50.770;0.250;2024-03-25T10:45:29;12.90;99.90
5962;DHT22;3007;50.770;0.250;2024-03-25T10:47:57;13.00;99.90
5962;DHT22;3007;50.770;0.250;2024-03-25T10:50:28;13.00;99.90
5962;DHT22;3007;50.770;0.250;2024-03-25T10:52:54;13.00;99.90
5962;DHT22;3007;50.770;0.250;2024-03-25T10:55:20;13.00;99.90
5962;DHT22;3007;50.770;0.250;2024-03-25T10:57:48;13.00;99.90
5962;DHT22;3007;50.770;0.250;2024-03-25T11:00:16;12.90;99.90
5962;DHT22;3007;50.770;0.250;2024-03-25T11:02:42;12.90;99.90
5962;DHT22;3007;50.770;0.250;2024-03-25T11:05:09;12.90;99.90
5962;DHT22;3007;50.770;0.250;2024-03-25T11:07:35;12.90;99.90
5962;DHT22;3007;50.770;0.250;2024-03-25T11:10:05;13.00;99.90
5962;DHT22;3007;50.770;0.250;2024-03-25T11:12:35;13.00;99.90
5962;DHT22;3007;50.770;0.250;2024-03-25T11:15:04;13.00;99.90
5962;DHT22;3007;50.770;0.250;2024-03-25T11:17:30;13.00;99.90
5962;DHT22;3007;50.770;0.250;2024-03-25T11:20:06;13.00;99.90
5962;DHT22;3007;50.770;0.250;2024-03-25T11:22:33;13.00;99.90
5962;DHT22;3007;50.770;0.250;2024-03-25T11:25:05;13.00;99.90
5962;DHT22;3007;50.770;0.250;2024-03-25T11:27:33;12.90;99.90
5962;DHT22;3007;50.770;0.250;2024-03-25T11:30:03;12.90;99.90
5962;DHT22;3007;50.770;0.250;2024-03-25T11:32:30;12.80;99.90
5962;DHT22;3007;50.770;0.250;2024-03-25T11:34:56;12.80;99.90
5962;DHT22;3007;50.770;0.250;2024-03-25T11:37:22;12.70;99.90
5962;DHT22;3007;50.770;0.250;2024-03-25T11:39:48;12.60;99.90
5962;DHT22;3007;50.770;0.250;2024-03-25T11:42:14;12.60;99.90
5962;DHT22;3007;50.770;0.250;2024-03-25T11:44:41;12.50;99.90
5962;DHT22;3007;50.770;0.250;2024-03-25T11:47:09;12.50;99.90
5962;DHT22;3007;50.770;0.250;2024-03-25T11:49:38;12.50;99.90
5962;DHT22;3007;50.770;0.250;2024-03-25T11:52:06;12.50;99.90
5962;DHT22;3007;50.770;0.250;2024-03-25T11:54:32;12.40;99.90
5962;DHT22;3007;50.770;0.250;2024-03-25T11:56:58;12.40;99.90
5962;DHT22;3007;50.770;0.250;2024-03-25T11:59:24;12.40;99.90
5962;DHT22;3007;50.770;0.250;2024-03-25T12:01:50;12.40;99.90
5962;DHT22;3007;50.770;0.250;2024-03-25T12:04:18;12.40;99.90
5962;DHT22;3007;50.770;0.250;2024-03-25T12:06:44;12.50;99.90
5962;DHT22;3007;50.770;0.250;2024-03-25T12:09:10;12.40;99.90
5962;DHT22;3007;50.770;0.250;2024-03-25T12:11:54;12.40;99.90
5962;DHT22;3007;50.770;0.250;2024-03-25T12:14:21;12.40;99.90
5962;DHT22;3007;50.770;0.250;2024-03-25T12:16:47;12.40;99.90
5962;DHT22;3007;50.770;0.250;2024-03-25T12:19:14;12.50;99.90
5962;DHT22;3007;50.770;0.250;2024-03-25T12:21:42;12.40;99.90
5962;DHT22;3007;50.770;0.250;2024-03-25T12:24:07;12.40;99.90
5962;DHT22;3007;50.770;0.250;2024-03-25T12:26:34;12.50;99.90
5962;DHT22;3007;50.770;0.250;2024-03-25T12:29:00;12.50;99.90
5962;DHT22;3007;50.770;0.250;2024-03-25T12:31:26;12.60;99.90
5962;DHT22;3007;50.770;0.250;2024-03-25T12:33:52;12.60;99.90
5962;DHT22;3007;50.770;0.250;2024-03-25T12:36:20;12.70;99.90
5962;DHT22;3007;50.770;0.250;2024-03-25T12:38:54;12.80;99.90
5962;DHT22;3007;50.770;0.250;2024-03-25T12:41:22;12.80;99.90
5962;DHT22;3007;50.770;0.250;2024-03-25T12:43:49;12.90;99.90
5962;DHT22;3007;50.770;0.250;2024-03-25T12:46:16;12.90;99.90
5962;DHT22;3007;50.770;0.250;2024-03-25T12:48:42;12.90;99.90
5962;DHT22;3007;50.770;0.250;2024-03-25T12:51:12;13.00;99.90
5962;DHT22;3007;50.770;0.250;2024-03-25T12:53:38;13.00;99.90
5962;DHT22;3007;50.770;0.250;2024-03-25T12:56:05;13.00;99.90
5962;DHT22;3007;50.770;0.250;2024-03-25T12:58:31;13.00;99.90
5962;DHT22;3007;50.770;0.250;2024-03-25T13:00:59;12.90;99.90
5962;DHT22;3007;50.770;0.250;2024-03-25T13:03:25;12.90;99.90
5962;DHT22;3007;50.770;0.250;2024-03-25T13:05:50;12.90;99.90
5962;DHT22;3007;50.770;0.250;2024-03-25T13:08:16;12.90;99.90
5962;DHT22;3007;50.770;0.250;2024-03-25T13:10:43;12.90;99.90
5962;DHT22;3007;50.770;0.250;2024-03-25T13:13:10;12.90;99.90
5962;DHT22;3007;50.770;0.250;2024-03-25T13:15:36;12.90;99.90
5962;DHT22;3007;50.770;0.250;2024-03-25T13:18:02;12.90;99.90
5962;DHT22;3007;50.770;0.250;2024-03-25T13:20:28;12.80;99.90
5962;DHT22;3007;50.770;0.250;2024-03-25T13:22:54;12.80;99.90
5962;DHT22;3007;50.770;0.250;2024-03-25T13:25:21;12.80;99.90
5962;DHT22;3007;50.770;0.250;2024-03-25T13:27:47;12.80;99.90
5962;DHT22;3007;50.770;0.250;2024-03-25T13:30:14;12.80;99.90
5962;DHT22;3007;50.770;0.250;2024-03-25T13:32:40;12.90;99.90
5962;DHT22;3007;50.770;0.250;2024-03-25T13:35:06;12.90;99.90
5962;DHT22;3007;50.770;0.250;2024-03-25T13:37:32;12.90;99.90
5962;DHT22;3007;50.770;0.250;2024-03-25T13:39:58;12.90;99.90
5962;DHT22;3007;50.770;0.250;2024-03-25T13:42:24;12.90;99.90
5962;DHT22;3007;50.770;0.250;2024-03-25T13:44:50;13.00;99.90
5962;DHT22;3007;50.770;0.250;2024-03-25T13:47:17;13.00;99.90
5962;DHT22;3007;50.770;0.250;2024-03-25T13:49:43;13.10;99.90
5962;DHT22;3007;50.770;0.250;2024-03-25T13:52:09;13.10;99.90
5962;DHT22;3007;50.770;0.250;2024-03-25T13:54:35;13.10;99.90
5962;DHT22;3007;50.770;0.250;2024-03-25T13:57:00;13.10;99.90
5962;DHT22;3007;50.770;0.250;2024-03-25T13:59:26;13.00;99.90
5962;DHT22;3007;50.770;0.250;2024-03-25T14:01:52;13.00;99.90
5962;DHT22;3007;50.770;0.250;2024-03-25T14:04:19;12.90;99.90
5962;DHT22;3007;50.770;0.250;2024-03-25T14:06:45;12.80;99.90
5962;DHT22;3007;50.770;0.250;2024-03-25T14:09:23;12.80;99.90
5962;DHT22;3007;50.770;0.250;2024-03-25T14:11:49;12.80;99.90
5962;DHT22;3007;50.770;0.250;2024-03-25T14:14:14;12.70;99.90
5962;DHT22;3007;50.770;0.250;2024-03-25T14:16:40;12.70;99.90
5962;DHT22;3007;50.770;0.250;2024-03-25T14:19:06;12.70;99.90
5962;DHT22;3007;50.770;0.250;2024-03-25T14:21:33;12.70;99.90
5962;DHT22;3007;50.770;0.250;2024-03-25T14:23:59;12.60;99.90
5962;DHT22;3007;50.770;0.250;2024-03-25T14:26:25;12.60;99.90
5962;DHT22;3007;50.770;0.250;2024-03-25T14:28:51;12.60;99.90
5962;DHT22;3007;50.770;0.250;2024-03-25T14:31:17;12.60;99.90
5962;DHT22;3007;50.770;0.250;2024-03-25T14:33:43;12.60;99.90
5962;DHT22;3007;50.770;0.250;2024-03-25T14:36:09;12.60;99.90
5962;DHT22;3007;50.770;0.250;2024-03-25T14:38:36;12.50;99.90
5962;DHT22;3007;50.770;0.250;2024-03-25T14:41:02;12.50;99.90
5962;DHT22;3007;50.770;0.250;2024-03-25T14:43:28;12.40;99.90
5962;DHT22;3007;50.770;0.250;2024-03-25T14:45:53;12.40;99.90
5962;DHT22;3007;50.770;0.250;2024-03-25T14:48:19;12.30;99.90
5962;DHT22;3007;50.770;0.250;2024-03-25T14:50:45;12.40;99.90
5962;DHT22;3007;50.770;0.250;2024-03-25T14:53:11;12.50;99.90
5962;DHT22;3007;50.770;0.250;2024-03-25T14:55:38;12.50;99.90
5962;DHT22;3007;50.770;0.250;2024-03-25T14:58:04;12.50;99.90
5962;DHT22;3007;50.770;0.250;2024-03-25T15:00:30;12.50;99.90
5962;DHT22;3007;50.770;0.250;2024-03-25T15:02:56;12.50;99.90
5962;DHT22;3007;50.770;0.250;2024-03-25T15:05:22;12.50;99.90
5962;DHT22;3007;50.770;0.250;2024-03-25T15:07:47;12.50;99.90
5962;DHT22;3007;50.770;0.250;2024-03-25T15:10:13;12.50;99.90
5962;DHT22;3007;50.770;0.250;2024-03-25T15:12:41;12.40;99.90
5962;DHT22;3007;50.770;0.250;2024-03-25T15:15:08;12.40;99.90
5962;DHT22;3007;50.770;0.250;2024-03-25T15:17:34;12.40;99.90
5962;DHT22;3007;50.770;0.250;2024-03-25T15:20:00;12.30;99.90
5962;DHT22;3007;50.770;0.250;2024-03-25T15:22:26;12.30;99.90
5962;DHT22;3007;50.770;0.250;2024-03-25T15:24:52;12.20;99.90
5962;DHT22;3007;50.770;0.250;2024-03-25T15:27:18;12.20;99.90
5962;DHT22;3007;50.770;0.250;2024-03-25T15:29:45;12.10;99.90
5962;DHT22;3007;50.770;0.250;2024-03-25T15:32:11;12.10;99.90
5962;DHT22;3007;50.770;0.250;2024-03-25T15:34:37;12.10;99.90
5962;DHT22;3007;50.770;0.250;2024-03-25T15:37:03;12.10;99.90
5962;DHT22;3007;50.770;0.250;2024-03-25T15:39:29;12.10;99.90
5962;DHT22;3007;50.770;0.250;2024-03-25T15:41:55;12.00;99.90
5962;DHT22;3007;50.770;0.250;2024-03-25T15:44:21;12.00;99.90
5962;DHT22;3007;50.770;0.250;2024-03-25T15:46:48;12.00;99.90
5962;DHT22;3007;50.770;0.250;2024-03-25T15:49:16;12.00;99.90
5962;DHT22;3007;50.770;0.250;2024-03-25T15:51:42;12.00;99.90
5962;DHT22;3007;50.770;0.250;2024-03-25T15:54:08;11.90;99.90
5962;DHT22;3007;50.770;0.250;2024-03-25T15:56:34;11.90;99.90
5962;DHT22;3007;50.770;0.250;2024-03-25T15:59:00;11.90;99.90
5962;DHT22;3007;50.770;0.250;2024-03-25T16:01:29;11.90;99.90
5962;DHT22;3007;50.770;0.250;2024-03-25T16:03:57;11.80;99.90
5962;DHT22;3007;50.770;0.250;2024-03-25T16:06:23;11.80;99.90